DFDEM LOWI-EDDS
Flight info
| Callsign | DFDEM |
|---|---|
| Flight time | 0h 41m |
| Altitude | 13000 |
| Route | MOGTI1R MOGTI/N0277F120 P66 KPT/N0275F090 L856 SIXWA/N0267F090 DCT MOMUK DCT LUPOL Z714 PELOG T126 REUTL REUTL5A |
| Aircraft | TBM8/L-SDFGRY/SB2 |
Departure
| Time | 2026-05-07 20:44 |
|---|---|
| Airport | Innsbruck Airport (LOWI) |
Arrival
| Time | 2026-05-07 21:26 |
|---|---|
| Airport | Stuttgart Airport (EDDS) |
| Time | Latitude | Longitude | Altitude | Speed | Heading |
|---|---|---|---|---|---|
| 2026-05-07 20:01 | 47.25885 | 11.35398 | 1898 ft | 0 kts | 262° |
| 2026-05-07 20:41 | 47.25884 | 11.35384 | 1894 ft | 6 kts | 269° |
| 2026-05-07 20:41 | 47.25918 | 11.35321 | 1898 ft | 8 kts | 309° |
| 2026-05-07 20:41 | 47.25968 | 11.35279 | 1892 ft | 7 kts | 351° |
| 2026-05-07 20:41 | 47.25979 | 11.35277 | 1896 ft | 0 kts | 351° |
| 2026-05-07 20:43 | 47.26020 | 11.35268 | 1895 ft | 14 kts | 351° |
| 2026-05-07 20:43 | 47.26106 | 11.35227 | 1897 ft | 9 kts | 288° |
| 2026-05-07 20:43 | 47.26088 | 11.35030 | 1898 ft | 43 kts | 261° |
| 2026-05-07 20:44 | 47.26012 | 11.34314 | 1899 ft | 97 kts | 261° |
| 2026-05-07 20:44 | 47.25885 | 11.33208 | 2127 ft | 117 kts | 261° |
| 2026-05-07 20:44 | 47.25746 | 11.31932 | 2481 ft | 133 kts | 261° |
| 2026-05-07 20:44 | 47.25619 | 11.30621 | 3089 ft | 128 kts | 263° |
| 2026-05-07 20:45 | 47.25495 | 11.29321 | 3631 ft | 129 kts | 261° |
| 2026-05-07 20:45 | 47.25361 | 11.28030 | 4131 ft | 130 kts | 262° |
| 2026-05-07 20:45 | 47.25306 | 11.26708 | 4638 ft | 130 kts | 281° |
| 2026-05-07 20:45 | 47.25672 | 11.25492 | 5205 ft | 131 kts | 298° |
| 2026-05-07 20:46 | 47.26046 | 11.24259 | 5757 ft | 133 kts | 292° |
| 2026-05-07 20:46 | 47.26394 | 11.22988 | 6283 ft | 134 kts | 292° |
| 2026-05-07 20:46 | 47.26755 | 11.21720 | 6796 ft | 134 kts | 292° |
| 2026-05-07 20:46 | 47.27127 | 11.20431 | 7233 ft | 140 kts | 292° |
| 2026-05-07 20:47 | 47.27532 | 11.19081 | 7673 ft | 148 kts | 292° |
| 2026-05-07 20:47 | 47.27950 | 11.17663 | 8115 ft | 154 kts | 290° |
| 2026-05-07 20:47 | 47.28371 | 11.16173 | 8559 ft | 161 kts | 290° |
| 2026-05-07 20:47 | 47.28819 | 11.14628 | 9021 ft | 167 kts | 291° |
| 2026-05-07 20:48 | 47.29285 | 11.13037 | 9477 ft | 172 kts | 291° |
| 2026-05-07 20:48 | 47.29762 | 11.11400 | 9931 ft | 176 kts | 291° |
| 2026-05-07 20:48 | 47.30251 | 11.09721 | 10351 ft | 180 kts | 291° |
| 2026-05-07 20:48 | 47.30557 | 11.07937 | 10761 ft | 181 kts | 270° |
| 2026-05-07 20:49 | 47.30407 | 11.06092 | 11186 ft | 183 kts | 263° |
| 2026-05-07 20:49 | 47.30339 | 11.04213 | 11611 ft | 185 kts | 268° |
| 2026-05-07 20:49 | 47.30308 | 11.02341 | 12052 ft | 185 kts | 268° |
| 2026-05-07 20:49 | 47.30263 | 11.00404 | 12447 ft | 189 kts | 267° |
| 2026-05-07 20:50 | 47.30208 | 10.98459 | 12842 ft | 190 kts | 267° |
| 2026-05-07 20:50 | 47.30139 | 10.96477 | 13046 ft | 202 kts | 267° |
| 2026-05-07 20:50 | 47.30069 | 10.94347 | 13071 ft | 218 kts | 267° |
| 2026-05-07 20:50 | 47.29995 | 10.92029 | 13081 ft | 229 kts | 267° |
| 2026-05-07 20:51 | 47.29913 | 10.89662 | 13085 ft | 238 kts | 267° |
| 2026-05-07 20:51 | 47.29830 | 10.87160 | 13076 ft | 244 kts | 268° |
| 2026-05-07 20:51 | 47.30053 | 10.84702 | 13100 ft | 250 kts | 287° |
| 2026-05-07 20:51 | 47.30901 | 10.82445 | 13089 ft | 257 kts | 307° |
| 2026-05-07 20:52 | 47.32187 | 10.80588 | 13091 ft | 261 kts | 316° |
| 2026-05-07 20:52 | 47.33563 | 10.78818 | 13087 ft | 264 kts | 316° |
| 2026-05-07 20:52 | 47.34942 | 10.77031 | 13101 ft | 265 kts | 316° |
| 2026-05-07 20:52 | 47.36332 | 10.75215 | 13121 ft | 267 kts | 316° |
| 2026-05-07 20:53 | 47.37722 | 10.73387 | 13119 ft | 268 kts | 316° |
| 2026-05-07 20:53 | 47.39165 | 10.71618 | 13117 ft | 270 kts | 320° |
| 2026-05-07 20:53 | 47.40695 | 10.69996 | 13084 ft | 271 kts | 323° |
| 2026-05-07 20:53 | 47.42250 | 10.68432 | 13050 ft | 270 kts | 323° |
| 2026-05-07 20:54 | 47.43788 | 10.66849 | 13070 ft | 269 kts | 323° |
| 2026-05-07 20:54 | 47.45333 | 10.65273 | 13061 ft | 269 kts | 323° |
| 2026-05-07 20:54 | 47.46857 | 10.63740 | 13063 ft | 269 kts | 323° |
| 2026-05-07 20:54 | 47.48414 | 10.62189 | 13088 ft | 269 kts | 323° |
| 2026-05-07 20:55 | 47.49964 | 10.60627 | 13096 ft | 270 kts | 323° |
| 2026-05-07 20:55 | 47.51520 | 10.59067 | 13086 ft | 270 kts | 323° |
| 2026-05-07 20:55 | 47.53075 | 10.57493 | 13095 ft | 270 kts | 323° |
| 2026-05-07 20:55 | 47.54616 | 10.55912 | 13082 ft | 269 kts | 322° |
| 2026-05-07 20:56 | 47.56152 | 10.54343 | 13061 ft | 267 kts | 322° |
| 2026-05-07 20:56 | 47.57676 | 10.52773 | 13067 ft | 266 kts | 322° |
| 2026-05-07 20:56 | 47.59193 | 10.51201 | 13079 ft | 266 kts | 322° |
| 2026-05-07 20:56 | 47.60694 | 10.49607 | 13072 ft | 265 kts | 320° |
| 2026-05-07 20:57 | 47.62163 | 10.47961 | 13069 ft | 264 kts | 319° |
| 2026-05-07 20:57 | 47.63640 | 10.46348 | 13072 ft | 264 kts | 320° |
| 2026-05-07 20:57 | 47.65132 | 10.44769 | 13069 ft | 263 kts | 321° |
| 2026-05-07 20:57 | 47.66612 | 10.43229 | 13071 ft | 263 kts | 321° |
| 2026-05-07 20:58 | 47.68116 | 10.41675 | 13075 ft | 263 kts | 321° |
| 2026-05-07 20:58 | 47.69618 | 10.40122 | 13080 ft | 263 kts | 321° |
| 2026-05-07 20:58 | 47.71120 | 10.38566 | 13079 ft | 263 kts | 321° |
| 2026-05-07 20:58 | 47.72606 | 10.36980 | 13079 ft | 263 kts | 318° |
| 2026-05-07 20:59 | 47.73890 | 10.35080 | 13072 ft | 259 kts | 303° |
| 2026-05-07 20:59 | 47.74610 | 10.32680 | 13073 ft | 255 kts | 281° |
| 2026-05-07 20:59 | 47.74685 | 10.30071 | 13074 ft | 253 kts | 264° |
| 2026-05-07 20:59 | 47.74385 | 10.27496 | 13070 ft | 253 kts | 258° |
| 2026-05-07 21:00 | 47.74081 | 10.24927 | 13070 ft | 252 kts | 263° |
| 2026-05-07 21:00 | 47.74006 | 10.22318 | 13069 ft | 253 kts | 269° |
| 2026-05-07 21:00 | 47.74144 | 10.19725 | 13041 ft | 254 kts | 284° |
| 2026-05-07 21:00 | 47.75145 | 10.17550 | 12902 ft | 265 kts | 317° |
| 2026-05-07 21:01 | 47.76687 | 10.16014 | 12772 ft | 269 kts | 325° |
| 2026-05-07 21:01 | 47.78271 | 10.14530 | 12646 ft | 268 kts | 321° |
| 2026-05-07 21:01 | 47.79663 | 10.12764 | 12513 ft | 266 kts | 312° |
| 2026-05-07 21:01 | 47.80932 | 10.10772 | 12382 ft | 265 kts | 310° |
| 2026-05-07 21:02 | 47.82213 | 10.08795 | 12274 ft | 266 kts | 311° |
| 2026-05-07 21:02 | 47.83540 | 10.06879 | 12144 ft | 266 kts | 313° |
| 2026-05-07 21:02 | 47.84889 | 10.05016 | 12108 ft | 263 kts | 314° |
| 2026-05-07 21:02 | 47.86240 | 10.03202 | 12096 ft | 260 kts | 315° |
| 2026-05-07 21:03 | 47.87586 | 10.01418 | 12090 ft | 258 kts | 315° |
| 2026-05-07 21:03 | 47.88929 | 9.99646 | 12092 ft | 257 kts | 315° |
| 2026-05-07 21:03 | 47.90264 | 9.97892 | 12089 ft | 256 kts | 315° |
| 2026-05-07 21:03 | 47.91597 | 9.96139 | 12093 ft | 255 kts | 315° |
| 2026-05-07 21:04 | 47.92930 | 9.94390 | 12093 ft | 254 kts | 315° |
| 2026-05-07 21:04 | 47.94254 | 9.92649 | 12097 ft | 254 kts | 315° |
| 2026-05-07 21:04 | 47.95584 | 9.90901 | 12091 ft | 254 kts | 315° |
| 2026-05-07 21:04 | 47.96911 | 9.89159 | 12087 ft | 254 kts | 315° |
| 2026-05-07 21:05 | 47.98236 | 9.87418 | 12072 ft | 254 kts | 315° |
| 2026-05-07 21:05 | 47.99561 | 9.85677 | 12076 ft | 254 kts | 315° |
| 2026-05-07 21:05 | 48.00868 | 9.83957 | 12079 ft | 254 kts | 315° |
| 2026-05-07 21:05 | 48.02196 | 9.82211 | 12082 ft | 254 kts | 315° |
| 2026-05-07 21:06 | 48.03516 | 9.80472 | 12080 ft | 254 kts | 315° |
| 2026-05-07 21:06 | 48.04844 | 9.78716 | 12081 ft | 254 kts | 315° |
| 2026-05-07 21:06 | 48.06166 | 9.76971 | 12078 ft | 254 kts | 315° |
| 2026-05-07 21:06 | 48.07492 | 9.75226 | 12079 ft | 254 kts | 315° |
| 2026-05-07 21:07 | 48.08813 | 9.73484 | 12079 ft | 254 kts | 315° |
| 2026-05-07 21:07 | 48.10135 | 9.71735 | 12077 ft | 254 kts | 315° |
| 2026-05-07 21:07 | 48.11459 | 9.69985 | 12082 ft | 254 kts | 315° |
| 2026-05-07 21:07 | 48.12780 | 9.68235 | 12079 ft | 254 kts | 315° |
| 2026-05-07 21:08 | 48.14100 | 9.66486 | 12079 ft | 254 kts | 315° |
| 2026-05-07 21:08 | 48.15421 | 9.64735 | 12080 ft | 254 kts | 315° |
| 2026-05-07 21:08 | 48.16742 | 9.62982 | 12087 ft | 254 kts | 315° |
| 2026-05-07 21:08 | 48.18065 | 9.61226 | 12087 ft | 254 kts | 315° |
| 2026-05-07 21:09 | 48.19368 | 9.59496 | 12080 ft | 253 kts | 315° |
| 2026-05-07 21:09 | 48.20688 | 9.57743 | 12082 ft | 253 kts | 315° |
| 2026-05-07 21:09 | 48.22007 | 9.55988 | 12082 ft | 254 kts | 315° |
| 2026-05-07 21:09 | 48.23326 | 9.54232 | 12088 ft | 254 kts | 315° |
| 2026-05-07 21:10 | 48.24645 | 9.52476 | 12084 ft | 254 kts | 315° |
| 2026-05-07 21:10 | 48.25964 | 9.50716 | 12090 ft | 253 kts | 315° |
| 2026-05-07 21:10 | 48.27284 | 9.48956 | 12089 ft | 254 kts | 315° |
| 2026-05-07 21:10 | 48.28158 | 9.47789 | 12085 ft | 254 kts | 315° |
| 2026-05-07 21:11 | 48.29480 | 9.46025 | 12084 ft | 254 kts | 315° |
| 2026-05-07 21:11 | 48.30801 | 9.44260 | 12088 ft | 254 kts | 315° |
| 2026-05-07 21:11 | 48.33446 | 9.40719 | 12083 ft | 255 kts | 315° |
| 2026-05-07 21:12 | 48.34770 | 9.38948 | 12095 ft | 255 kts | 315° |
| 2026-05-07 21:12 | 48.36118 | 9.37203 | 12085 ft | 256 kts | 320° |
| 2026-05-07 21:12 | 48.37694 | 9.35927 | 11985 ft | 263 kts | 337° |
| 2026-05-07 21:12 | 48.39511 | 9.35369 | 11809 ft | 268 kts | 347° |
| 2026-05-07 21:13 | 48.41338 | 9.34813 | 11635 ft | 268 kts | 344° |
| 2026-05-07 21:13 | 48.43159 | 9.34191 | 11460 ft | 268 kts | 344° |
| 2026-05-07 21:13 | 48.44985 | 9.33582 | 11253 ft | 269 kts | 344° |
| 2026-05-07 21:13 | 48.46823 | 9.32977 | 10999 ft | 271 kts | 344° |
| 2026-05-07 21:14 | 48.48676 | 9.32382 | 10756 ft | 273 kts | 345° |
| 2026-05-07 21:14 | 48.50531 | 9.31790 | 10525 ft | 273 kts | 344° |
| 2026-05-07 21:14 | 48.52393 | 9.31198 | 10299 ft | 273 kts | 345° |
| 2026-05-07 21:14 | 48.54229 | 9.30617 | 10065 ft | 273 kts | 344° |
| 2026-05-07 21:15 | 48.56085 | 9.30026 | 9809 ft | 272 kts | 344° |
| 2026-05-07 21:15 | 48.57937 | 9.29486 | 9635 ft | 269 kts | 350° |
| 2026-05-07 21:15 | 48.59805 | 9.29656 | 9490 ft | 271 kts | 11° |
| 2026-05-07 21:15 | 48.61539 | 9.30770 | 9350 ft | 273 kts | 30° |
| 2026-05-07 21:16 | 48.62955 | 9.32687 | 9163 ft | 275 kts | 50° |
| 2026-05-07 21:16 | 48.63871 | 9.35226 | 8921 ft | 277 kts | 71° |
| 2026-05-07 21:16 | 48.64458 | 9.38002 | 8693 ft | 277 kts | 72° |
| 2026-05-07 21:16 | 48.65067 | 9.40766 | 8470 ft | 276 kts | 71° |
| 2026-05-07 21:17 | 48.65663 | 9.43489 | 8237 ft | 275 kts | 72° |
| 2026-05-07 21:17 | 48.66257 | 9.46236 | 8011 ft | 274 kts | 72° |
| 2026-05-07 21:17 | 48.66848 | 9.48965 | 7782 ft | 272 kts | 72° |
| 2026-05-07 21:17 | 48.67433 | 9.51684 | 7554 ft | 271 kts | 72° |
| 2026-05-07 21:18 | 48.68013 | 9.54388 | 7251 ft | 267 kts | 72° |
| 2026-05-07 21:18 | 48.68576 | 9.57029 | 6939 ft | 261 kts | 71° |
| 2026-05-07 21:18 | 48.69128 | 9.59627 | 6607 ft | 256 kts | 73° |
| 2026-05-07 21:18 | 48.69685 | 9.62173 | 6275 ft | 253 kts | 62° |
| 2026-05-07 21:19 | 48.70948 | 9.63937 | 5940 ft | 249 kts | 22° |
| 2026-05-07 21:19 | 48.72601 | 9.64145 | 5671 ft | 241 kts | 348° |
| 2026-05-07 21:19 | 48.74202 | 9.63519 | 5493 ft | 235 kts | 343° |
| 2026-05-07 21:19 | 48.75764 | 9.62829 | 5319 ft | 231 kts | 340° |
| 2026-05-07 21:20 | 48.77013 | 9.61395 | 5145 ft | 228 kts | 301° |
| 2026-05-07 21:20 | 48.77282 | 9.59095 | 4976 ft | 226 kts | 258° |
| 2026-05-07 21:20 | 48.76563 | 9.57002 | 4812 ft | 225 kts | 236° |
| 2026-05-07 21:20 | 48.75657 | 9.55077 | 4656 ft | 224 kts | 234° |
| 2026-05-07 21:21 | 48.74924 | 9.53025 | 4557 ft | 217 kts | 248° |
| 2026-05-07 21:21 | 48.74414 | 9.50936 | 4469 ft | 207 kts | 252° |
| 2026-05-07 21:21 | 48.74015 | 9.48891 | 4389 ft | 202 kts | 255° |
| 2026-05-07 21:21 | 48.73659 | 9.46853 | 4260 ft | 197 kts | 255° |
| 2026-05-07 21:22 | 48.73294 | 9.44879 | 3990 ft | 192 kts | 253° |
| 2026-05-07 21:22 | 48.72915 | 9.42960 | 3732 ft | 188 kts | 253° |
| 2026-05-07 21:22 | 48.72549 | 9.41053 | 3480 ft | 190 kts | 254° |
| 2026-05-07 21:22 | 48.72189 | 9.39118 | 3223 ft | 192 kts | 254° |
| 2026-05-07 21:23 | 48.71827 | 9.37176 | 2955 ft | 185 kts | 254° |
| 2026-05-07 21:23 | 48.71489 | 9.35392 | 2714 ft | 172 kts | 253° |
| 2026-05-07 21:23 | 48.71174 | 9.33761 | 2497 ft | 150 kts | 253° |
| 2026-05-07 21:23 | 48.70895 | 9.32316 | 2301 ft | 140 kts | 253° |
| 2026-05-07 21:24 | 48.70628 | 9.30900 | 2100 ft | 137 kts | 254° |
| 2026-05-07 21:24 | 48.70390 | 9.29593 | 1915 ft | 122 kts | 254° |
| 2026-05-07 21:24 | 48.70164 | 9.28396 | 1752 ft | 114 kts | 252° |
| 2026-05-07 21:24 | 48.69944 | 9.27265 | 1608 ft | 111 kts | 253° |
| 2026-05-07 21:25 | 48.69734 | 9.26157 | 1458 ft | 109 kts | 255° |
| 2026-05-07 21:25 | 48.69522 | 9.25044 | 1327 ft | 107 kts | 253° |
| 2026-05-07 21:25 | 48.69321 | 9.23975 | 1216 ft | 104 kts | 255° |
| 2026-05-07 21:25 | 48.69144 | 9.23017 | 1211 ft | 84 kts | 254° |
| 2026-05-07 21:26 | 48.69012 | 9.22322 | 1227 ft | 54 kts | 254° |
| 2026-05-07 21:26 | 48.68945 | 9.21909 | 1245 ft | 29 kts | 267° |
| 2026-05-07 21:26 | 48.68958 | 9.21655 | 1243 ft | 22 kts | 281° |
| 2026-05-07 21:26 | 48.68982 | 9.21506 | 1251 ft | 7 kts | 283° |
| 2026-05-07 21:27 | 48.68992 | 9.21443 | 1254 ft | 8 kts | 284° |
| 2026-05-07 21:27 | 48.69003 | 9.21371 | 1254 ft | 10 kts | 282° |
| 2026-05-07 21:27 | 48.69023 | 9.21254 | 1260 ft | 12 kts | 283° |
| 2026-05-07 21:27 | 48.69040 | 9.21150 | 1264 ft | 8 kts | 283° |
| 2026-05-07 21:28 | 48.69069 | 9.21091 | 1264 ft | 8 kts | 345° |
| 2026-05-07 21:28 | 48.69111 | 9.21074 | 1265 ft | 6 kts | 343° |
| 2026-05-07 21:28 | 48.69156 | 9.21057 | 1266 ft | 7 kts | 348° |
| 2026-05-07 21:28 | 48.69186 | 9.21096 | 1265 ft | 8 kts | 90° |
| 2026-05-07 21:29 | 48.69184 | 9.21166 | 1263 ft | 6 kts | 145° |
| 2026-05-07 21:29 | 48.69166 | 9.21174 | 1265 ft | 0 kts | 165° |